sensor_id;sensor_type;location;lat;lon;timestamp;pressure;altitude;pressure_sealevel;temperature;humidity
72975;BME280;61166;54.228;37.632;2023-02-15T00:01:09;99369.09;;;-1.61;nan
72975;BME280;61166;54.228;37.632;2023-02-15T00:03:37;99385.38;;;-1.61;nan
72975;BME280;61166;54.228;37.632;2023-02-15T00:06:04;99389.72;;;-1.61;nan
72975;BME280;61166;54.228;37.632;2023-02-15T00:08:31;99401.63;;;-1.70;nan
72975;BME280;61166;54.228;37.632;2023-02-15T00:11:11;99397.72;;;-1.64;nan
72975;BME280;61166;54.228;37.632;2023-02-15T00:13:38;99391.44;;;-1.72;nan
72975;BME280;61166;54.228;37.632;2023-02-15T00:16:07;99407.84;;;-1.82;nan
72975;BME280;61166;54.228;37.632;2023-02-15T00:18:33;99393.50;;;-1.66;nan
72975;BME280;61166;54.228;37.632;2023-02-15T00:21:05;99410.75;;;-1.66;nan
72975;BME280;61166;54.228;37.632;2023-02-15T00:23:32;99417.78;;;-1.68;nan
72975;BME280;61166;54.228;37.632;2023-02-15T00:26:11;99414.72;;;-1.62;nan
72975;BME280;61166;54.228;37.632;2023-02-15T00:28:38;99415.78;;;-1.64;nan
72975;BME280;61166;54.228;37.632;2023-02-15T00:31:06;99400.81;;;-1.71;nan
72975;BME280;61166;54.228;37.632;2023-02-15T00:33:34;99428.28;;;-1.60;nan
72975;BME280;61166;54.228;37.632;2023-02-15T00:36:01;99416.56;;;-1.74;nan
72975;BME280;61166;54.228;37.632;2023-02-15T00:38:29;99415.47;;;-1.71;nan
72975;BME280;61166;54.228;37.632;2023-02-15T00:41:01;99425.78;;;-1.71;nan
72975;BME280;61166;54.228;37.632;2023-02-15T00:43:29;99426.59;;;-1.71;nan
72975;BME280;61166;54.228;37.632;2023-02-15T00:45:56;99430.69;;;-1.68;nan
72975;BME280;61166;54.228;37.632;2023-02-15T00:48:23;99428.66;;;-1.64;nan
72975;BME280;61166;54.228;37.632;2023-02-15T00:50:55;99426.34;;;-1.68;nan
72975;BME280;61166;54.228;37.632;2023-02-15T00:53:23;99437.38;;;-1.86;nan
72975;BME280;61166;54.228;37.632;2023-02-15T00:55:50;99436.50;;;-1.76;nan
72975;BME280;61166;54.228;37.632;2023-02-15T00:58:17;99436.06;;;-1.81;nan
72975;BME280;61166;54.228;37.632;2023-02-15T01:00:45;99445.06;;;-1.75;nan
72975;BME280;61166;54.228;37.632;2023-02-15T01:03:13;99442.84;;;-1.80;nan
72975;BME280;61166;54.228;37.632;2023-02-15T01:05:40;99431.16;;;-1.84;nan
72975;BME280;61166;54.228;37.632;2023-02-15T01:08:07;99430.47;;;-1.86;nan
72975;BME280;61166;54.228;37.632;2023-02-15T01:10:34;99438.00;;;-1.94;nan
72975;BME280;61166;54.228;37.632;2023-02-15T01:13:02;99448.75;;;-1.89;nan
72975;BME280;61166;54.228;37.632;2023-02-15T01:15:29;99441.66;;;-1.96;nan
72975;BME280;61166;54.228;37.632;2023-02-15T01:17:55;99451.72;;;-1.93;nan
72975;BME280;61166;54.228;37.632;2023-02-15T01:20:25;99451.91;;;-1.85;nan
72975;BME280;61166;54.228;37.632;2023-02-15T01:22:53;99454.66;;;-1.98;nan
72975;BME280;61166;54.228;37.632;2023-02-15T01:25:20;99455.56;;;-1.88;nan
72975;BME280;61166;54.228;37.632;2023-02-15T01:27:48;99453.91;;;-1.89;nan
72975;BME280;61166;54.228;37.632;2023-02-15T01:30:15;99457.13;;;-1.96;nan
72975;BME280;61166;54.228;37.632;2023-02-15T01:32:42;99473.41;;;-1.96;nan
72975;BME280;61166;54.228;37.632;2023-02-15T01:35:09;99463.34;;;-1.99;nan
72975;BME280;61166;54.228;37.632;2023-02-15T01:37:36;99454.91;;;-2.01;nan
72975;BME280;61166;54.228;37.632;2023-02-15T01:40:04;99464.66;;;-2.05;nan
72975;BME280;61166;54.228;37.632;2023-02-15T01:42:32;99466.41;;;-2.05;nan
72975;BME280;61166;54.228;37.632;2023-02-15T01:45:29;99470.41;;;-2.12;nan
72975;BME280;61166;54.228;37.632;2023-02-15T01:47:58;99465.97;;;-2.10;nan
72975;BME280;61166;54.228;37.632;2023-02-15T01:50:44;99470.53;;;-2.14;nan
72975;BME280;61166;54.228;37.632;2023-02-15T01:55:55;99468.69;;;-2.23;nan
72975;BME280;61166;54.228;37.632;2023-02-15T01:58:26;99475.38;;;-2.20;nan
72975;BME280;61166;54.228;37.632;2023-02-15T02:00:54;99477.00;;;-2.19;nan
72975;BME280;61166;54.228;37.632;2023-02-15T02:06:15;99478.63;;;-2.18;nan
72975;BME280;61166;54.228;37.632;2023-02-15T02:08:42;99483.31;;;-2.12;nan
72975;BME280;61166;54.228;37.632;2023-02-15T02:11:11;99480.97;;;-2.15;nan
72975;BME280;61166;54.228;37.632;2023-02-15T02:13:39;99490.53;;;-2.06;nan
72975;BME280;61166;54.228;37.632;2023-02-15T02:29:26;99499.91;;;-2.05;nan
72975;BME280;61166;54.228;37.632;2023-02-15T02:34:54;99508.00;;;-2.10;nan
72975;BME280;61166;54.228;37.632;2023-02-15T02:37:54;99507.69;;;-2.16;nan
72975;BME280;61166;54.228;37.632;2023-02-15T02:40:42;99506.03;;;-2.17;nan
72975;BME280;61166;54.228;37.632;2023-02-15T02:46:30;99500.06;;;-2.18;nan
72975;BME280;61166;54.228;37.632;2023-02-15T02:49:00;99509.06;;;-2.12;nan
72975;BME280;61166;54.228;37.632;2023-02-15T02:51:27;99504.06;;;-2.25;nan
72975;BME280;61166;54.228;37.632;2023-02-15T02:53:56;99502.78;;;-2.19;nan
72975;BME280;61166;54.228;37.632;2023-02-15T02:56:32;99510.50;;;-2.19;nan
72975;BME280;61166;54.228;37.632;2023-02-15T02:59:12;99512.59;;;-2.13;nan
72975;BME280;61166;54.228;37.632;2023-02-15T03:01:50;99517.25;;;-2.07;nan
72975;BME280;61166;54.228;37.632;2023-02-15T03:04:23;99511.53;;;-2.11;nan
72975;BME280;61166;54.228;37.632;2023-02-15T03:06:55;99506.03;;;-2.17;nan
72975;BME280;61166;54.228;37.632;2023-02-15T03:09:34;99502.53;;;-2.16;nan
72975;BME280;61166;54.228;37.632;2023-02-15T03:12:02;99502.78;;;-2.19;nan
72975;BME280;61166;54.228;37.632;2023-02-15T03:14:29;99509.31;;;-2.15;nan
72975;BME280;61166;54.228;37.632;2023-02-15T03:16:57;99505.34;;;-2.19;nan
72975;BME280;61166;54.228;37.632;2023-02-15T03:19:29;99506.03;;;-2.17;nan
72975;BME280;61166;54.228;37.632;2023-02-15T03:22:07;99508.03;;;-2.21;nan
72975;BME280;61166;54.228;37.632;2023-02-15T03:25:02;99507.19;;;-2.10;nan
72975;BME280;61166;54.228;37.632;2023-02-15T03:27:40;99495.28;;;-2.22;nan
72975;BME280;61166;54.228;37.632;2023-02-15T03:30:10;99511.34;;;-2.30;nan
72975;BME280;61166;54.228;37.632;2023-02-15T03:32:39;99513.81;;;-2.28;nan
72975;BME280;61166;54.228;37.632;2023-02-15T03:35:06;99507.97;;;-2.30;nan
72975;BME280;61166;54.228;37.632;2023-02-15T03:37:40;99519.25;;;-2.43;nan
72975;BME280;61166;54.228;37.632;2023-02-15T03:40:12;99524.53;;;-2.44;nan
72975;BME280;61166;54.228;37.632;2023-02-15T03:42:45;99529.44;;;-2.41;nan
72975;BME280;61166;54.228;37.632;2023-02-15T03:45:17;99532.38;;;-2.46;nan
72975;BME280;61166;54.228;37.632;2023-02-15T03:47:50;99530.97;;;-2.50;nan
72975;BME280;61166;54.228;37.632;2023-02-15T03:50:26;99540.56;;;-2.52;nan
72975;BME280;61166;54.228;37.632;2023-02-15T03:52:55;99534.13;;;-2.57;nan
72975;BME280;61166;54.228;37.632;2023-02-15T03:55:23;99532.63;;;-2.60;nan
72975;BME280;61166;54.228;37.632;2023-02-15T03:57:50;99528.19;;;-2.69;nan
72975;BME280;61166;54.228;37.632;2023-02-15T04:00:19;99541.53;;;-2.64;nan
72975;BME280;61166;54.228;37.632;2023-02-15T04:05:38;99539.53;;;-2.60;nan
72975;BME280;61166;54.228;37.632;2023-02-15T04:08:05;99539.19;;;-2.67;nan
72975;BME280;61166;54.228;37.632;2023-02-15T04:10:32;99542.91;;;-2.60;nan
72975;BME280;61166;54.228;37.632;2023-02-15T04:12:58;99550.41;;;-2.57;nan
72975;BME280;61166;54.228;37.632;2023-02-15T04:15:25;99560.47;;;-2.54;nan
72975;BME280;61166;54.228;37.632;2023-02-15T04:17:51;99552.38;;;-2.49;nan
72975;BME280;61166;54.228;37.632;2023-02-15T04:20:18;99557.19;;;-2.56;nan
72975;BME280;61166;54.228;37.632;2023-02-15T04:22:44;99548.63;;;-2.45;nan
72975;BME280;61166;54.228;37.632;2023-02-15T04:25:11;99550.63;;;-2.49;nan
72975;BME280;61166;54.228;37.632;2023-02-15T04:27:39;99546.19;;;-2.47;nan
72975;BME280;61166;54.228;37.632;2023-02-15T04:30:07;99549.81;;;-2.49;nan
72975;BME280;61166;54.228;37.632;2023-02-15T04:32:34;99558.13;;;-2.57;nan
72975;BME280;61166;54.228;37.632;2023-02-15T04:35:02;99550.28;;;-2.55;nan
72975;BME280;61166;54.228;37.632;2023-02-15T04:37:29;99552.63;;;-2.52;nan
72975;BME280;61166;54.228;37.632;2023-02-15T04:39:55;99555.56;;;-2.57;nan
72975;BME280;61166;54.228;37.632;2023-02-15T04:42:22;99546.66;;;-2.53;nan
72975;BME280;61166;54.228;37.632;2023-02-15T04:44:48;99548.06;;;-2.49;nan
72975;BME280;61166;54.228;37.632;2023-02-15T04:47:15;99553.44;;;-2.52;nan
72975;BME280;61166;54.228;37.632;2023-02-15T04:49:42;99556.72;;;-2.50;nan
72975;BME280;61166;54.228;37.632;2023-02-15T04:52:09;99547.13;;;-2.48;nan
72975;BME280;61166;54.228;37.632;2023-02-15T04:54:35;99558.94;;;-2.45;nan
72975;BME280;61166;54.228;37.632;2023-02-15T04:57:02;99547.81;;;-2.46;nan
72975;BME280;61166;54.228;37.632;2023-02-15T04:59:29;99566.53;;;-2.44;nan
72975;BME280;61166;54.228;37.632;2023-02-15T05:01:55;99566.31;;;-2.52;nan
72975;BME280;61166;54.228;37.632;2023-02-15T05:04:22;99567.72;;;-2.48;nan
72975;BME280;61166;54.228;37.632;2023-02-15T05:06:48;99572.66;;;-2.56;nan
72975;BME280;61166;54.228;37.632;2023-02-15T05:09:15;99564.22;;;-2.58;nan
72975;BME280;61166;54.228;37.632;2023-02-15T05:11:42;99566.56;;;-2.55;nan
72975;BME280;61166;54.228;37.632;2023-02-15T05:14:08;99569.94;;;-2.54;nan
72975;BME280;61166;54.228;37.632;2023-02-15T05:16:35;99574.97;;;-2.42;nan
72975;BME280;61166;54.228;37.632;2023-02-15T05:19:02;99555.66;;;-2.36;nan
72975;BME280;61166;54.228;37.632;2023-02-15T05:21:28;99574.25;;;-2.33;nan
72975;BME280;61166;54.228;37.632;2023-02-15T05:23:55;99575.44;;;-2.37;nan
72975;BME280;61166;54.228;37.632;2023-02-15T05:26:23;99577.25;;;-2.27;nan
72975;BME280;61166;54.228;37.632;2023-02-15T05:28:50;99585.34;;;-2.21;nan
72975;BME280;61166;54.228;37.632;2023-02-15T05:31:18;99584.06;;;-2.26;nan
72975;BME280;61166;54.228;37.632;2023-02-15T05:33:45;99582.84;;;-2.11;nan
72975;BME280;61166;54.228;37.632;2023-02-15T05:36:13;99580.97;;;-2.09;nan
72975;BME280;61166;54.228;37.632;2023-02-15T05:38:39;99586.34;;;-2.01;nan
72975;BME280;61166;54.228;37.632;2023-02-15T05:41:08;99583.75;;;-1.90;nan
72975;BME280;61166;54.228;37.632;2023-02-15T05:43:35;99592.28;;;-1.89;nan
72975;BME280;61166;54.228;37.632;2023-02-15T05:46:01;99597.91;;;-1.84;nan
72975;BME280;61166;54.228;37.632;2023-02-15T05:48:29;99592.63;;;-1.83;nan
72975;BME280;61166;54.228;37.632;2023-02-15T05:51:02;99598.81;;;-1.74;nan
72975;BME280;61166;54.228;37.632;2023-02-15T05:53:31;99590.44;;;-1.67;nan
72975;BME280;61166;54.228;37.632;2023-02-15T05:55:58;99589.97;;;-1.72;nan
72975;BME280;61166;54.228;37.632;2023-02-15T05:58:30;99598.16;;;-1.67;nan
72975;BME280;61166;54.228;37.632;2023-02-15T06:00:58;99597.91;;;-1.63;nan
72975;BME280;61166;54.228;37.632;2023-02-15T06:03:24;99602.84;;;-1.60;nan
72975;BME280;61166;54.228;37.632;2023-02-15T06:05:52;99600.94;;;-1.58;nan
72975;BME280;61166;54.228;37.632;2023-02-15T06:08:19;99606.09;;;-1.58;nan
72975;BME280;61166;54.228;37.632;2023-02-15T06:10:46;99600.72;;;-1.55;nan
72975;BME280;61166;54.228;37.632;2023-02-15T06:13:12;99601.69;;;-1.68;nan
72975;BME280;61166;54.228;37.632;2023-02-15T06:15:39;99606.59;;;-1.64;nan
72975;BME280;61166;54.228;37.632;2023-02-15T06:18:06;99612.53;;;-1.74;nan
72975;BME280;61166;54.228;37.632;2023-02-15T06:20:33;99599.94;;;-1.67;nan
72975;BME280;61166;54.228;37.632;2023-02-15T06:22:59;99616.34;;;-1.68;nan
72975;BME280;61166;54.228;37.632;2023-02-15T06:25:26;99619.63;;;-1.66;nan
72975;BME280;61166;54.228;37.632;2023-02-15T06:27:52;99626.97;;;-1.61;nan
72975;BME280;61166;54.228;37.632;2023-02-15T06:30:19;99625.22;;;-1.61;nan
72975;BME280;61166;54.228;37.632;2023-02-15T06:32:46;99632.03;;;-1.60;nan
72975;BME280;61166;54.228;37.632;2023-02-15T06:35:13;99627.34;;;-1.66;nan
72975;BME280;61166;54.228;37.632;2023-02-15T06:37:39;99628.63;;;-1.60;nan
72975;BME280;61166;54.228;37.632;2023-02-15T06:40:06;99631.00;;;-1.69;nan
72975;BME280;61166;54.228;37.632;2023-02-15T06:42:33;99631.19;;;-1.81;nan
72975;BME280;61166;54.228;37.632;2023-02-15T06:45:00;99629.66;;;-1.52;nan
72975;BME280;61166;54.228;37.632;2023-02-15T06:47:27;99630.22;;;-1.48;nan
72975;BME280;61166;54.228;37.632;2023-02-15T06:49:53;99624.56;;;-1.42;nan
72975;BME280;61166;54.228;37.632;2023-02-15T06:52:20;99633.53;;;-1.57;nan
72975;BME280;61166;54.228;37.632;2023-02-15T06:54:47;99635.19;;;-1.56;nan
72975;BME280;61166;54.228;37.632;2023-02-15T06:57:13;99629.16;;;-1.46;nan
72975;BME280;61166;54.228;37.632;2023-02-15T06:59:40;99628.91;;;-1.43;nan
72975;BME280;61166;54.228;37.632;2023-02-15T07:02:08;99624.44;;;-1.41;nan
72975;BME280;61166;54.228;37.632;2023-02-15T07:04:35;99620.34;;;-1.43;nan
72975;BME280;61166;54.228;37.632;2023-02-15T07:07:02;99621.34;;;-1.55;nan
72975;BME280;61166;54.228;37.632;2023-02-15T07:09:28;99612.41;;;-1.51;nan
72975;BME280;61166;54.228;37.632;2023-02-15T07:11:55;99617.31;;;-1.48;nan
72975;BME280;61166;54.228;37.632;2023-02-15T07:14:21;99623.50;;;-1.40;nan
72975;BME280;61166;54.228;37.632;2023-02-15T07:16:48;99614.28;;;-1.21;nan
72975;BME280;61166;54.228;37.632;2023-02-15T07:19:15;99620.84;;;-1.08;nan
72975;BME280;61166;54.228;37.632;2023-02-15T07:21:41;99622.59;;;-0.87;nan
72975;BME280;61166;54.228;37.632;2023-02-15T07:24:08;99610.91;;;-0.91;nan
72975;BME280;61166;54.228;37.632;2023-02-15T07:26:34;99613.41;;;-0.80;nan
72975;BME280;61166;54.228;37.632;2023-02-15T07:29:01;99619.19;;;-0.67;nan
72975;BME280;61166;54.228;37.632;2023-02-15T07:31:28;99606.28;;;-0.67;nan
72975;BME280;61166;54.228;37.632;2023-02-15T07:33:54;99606.16;;;-0.56;nan
72975;BME280;61166;54.228;37.632;2023-02-15T07:36:21;99605.22;;;-0.85;nan
72975;BME280;61166;54.228;37.632;2023-02-15T07:38:47;99602.34;;;-0.61;nan
72975;BME280;61166;54.228;37.632;2023-02-15T07:41:15;99591.47;;;-0.55;nan
72975;BME280;61166;54.228;37.632;2023-02-15T07:43:43;99598.44;;;-0.86;nan
72975;BME280;61166;54.228;37.632;2023-02-15T07:46:13;99598.56;;;-1.09;nan
72975;BME280;61166;54.228;37.632;2023-02-15T07:48:41;99599.63;;;-0.90;nan
72975;BME280;61166;54.228;37.632;2023-02-15T07:51:10;99589.56;;;-0.63;nan
72975;BME280;61166;54.228;37.632;2023-02-15T07:53:38;99627.50;;;-0.54;nan
72975;BME280;61166;54.228;37.632;2023-02-15T07:56:07;99602.06;;;-0.68;nan
72975;BME280;61166;54.228;37.632;2023-02-15T07:58:35;99614.56;;;-0.63;nan
72975;BME280;61166;54.228;37.632;2023-02-15T08:01:01;99605.34;;;-0.56;nan
72975;BME280;61166;54.228;37.632;2023-02-15T08:03:28;99618.03;;;-0.44;nan
72975;BME280;61166;54.228;37.632;2023-02-15T08:05:56;99594.78;;;-0.44;nan
72975;BME280;61166;54.228;37.632;2023-02-15T08:08:23;99609.41;;;-0.63;nan
72975;BME280;61166;54.228;37.632;2023-02-15T08:10:50;99618.84;;;-0.43;nan
72975;BME280;61166;54.228;37.632;2023-02-15T08:13:16;99610.63;;;-0.27;nan
72975;BME280;61166;54.228;37.632;2023-02-15T08:15:50;99612.47;;;-0.39;nan
72975;BME280;61166;54.228;37.632;2023-02-15T08:18:16;99610.03;;;-0.41;nan
72975;BME280;61166;54.228;37.632;2023-02-15T08:20:49;99608.34;;;-0.61;nan
72975;BME280;61166;54.228;37.632;2023-02-15T08:23:16;99604.84;;;-1.02;nan
72975;BME280;61166;54.228;37.632;2023-02-15T08:25:42;99622.72;;;-0.89;nan
72975;BME280;61166;54.228;37.632;2023-02-15T08:28:10;99628.22;;;-0.82;nan
72975;BME280;61166;54.228;37.632;2023-02-15T08:30:37;99631.56;;;-0.91;nan
72975;BME280;61166;54.228;37.632;2023-02-15T08:33:03;99632.16;;;-0.78;nan
72975;BME280;61166;54.228;37.632;2023-02-15T08:35:31;99632.19;;;-0.99;nan
72975;BME280;61166;54.228;37.632;2023-02-15T08:37:58;99640.31;;;-1.04;nan
72975;BME280;61166;54.228;37.632;2023-02-15T08:40:24;99641.13;;;-1.24;nan
72975;BME280;61166;54.228;37.632;2023-02-15T08:42:51;99644.28;;;-1.20;nan
72975;BME280;61166;54.228;37.632;2023-02-15T08:45:18;99639.94;;;-0.99;nan
72975;BME280;61166;54.228;37.632;2023-02-15T08:47:44;99639.81;;;-1.18;nan
72975;BME280;61166;54.228;37.632;2023-02-15T08:50:11;99650.19;;;-1.09;nan
72975;BME280;61166;54.228;37.632;2023-02-15T08:52:38;99649.44;;;-1.00;nan
72975;BME280;61166;54.228;37.632;2023-02-15T08:55:04;99652.22;;;-0.91;nan
72975;BME280;61166;54.228;37.632;2023-02-15T08:57:31;99650.31;;;-0.89;nan
72975;BME280;61166;54.228;37.632;2023-02-15T08:59:57;99651.31;;;-0.60;nan
72975;BME280;61166;54.228;37.632;2023-02-15T09:02:24;99649.22;;;-0.36;nan
72975;BME280;61166;54.228;37.632;2023-02-15T09:04:51;99656.34;;;-0.18;nan
72975;BME280;61166;54.228;37.632;2023-02-15T09:07:17;99653.34;;;-0.23;nan
72975;BME280;61166;54.228;37.632;2023-02-15T09:09:44;99657.41;;;-0.30;nan
72975;BME280;61166;54.228;37.632;2023-02-15T09:12:11;99656.91;;;-0.15;nan
72975;BME280;61166;54.228;37.632;2023-02-15T09:14:38;99652.66;;;-0.25;nan
72975;BME280;61166;54.228;37.632;2023-02-15T09:17:05;99647.69;;;-0.08;nan
72975;BME280;61166;54.228;37.632;2023-02-15T09:19:31;99646.88;;;-0.08;nan
72975;BME280;61166;54.228;37.632;2023-02-15T09:21:58;99655.56;;;-0.09;nan
72975;BME280;61166;54.228;37.632;2023-02-15T09:24:24;99662.38;;;0.02;nan
72975;BME280;61166;54.228;37.632;2023-02-15T09:26:51;99656.38;;;-0.09;nan
72975;BME280;61166;54.228;37.632;2023-02-15T09:29:18;99647.25;;;-0.13;nan
72975;BME280;61166;54.228;37.632;2023-02-15T09:31:48;99665.97;;;-0.60;nan
72975;BME280;61166;54.228;37.632;2023-02-15T09:34:17;99661.28;;;-0.46;nan
72975;BME280;61166;54.228;37.632;2023-02-15T09:36:45;99648.00;;;-0.31;nan
72975;BME280;61166;54.228;37.632;2023-02-15T09:39:15;99666.41;;;-0.25;nan
72975;BME280;61166;54.228;37.632;2023-02-15T10:06:47;99671.91;;;-0.90;nan
72975;BME280;61166;54.228;37.632;2023-02-15T10:18:13;99684.19;;;-1.04;nan
72975;BME280;61166;54.228;37.632;2023-02-15T10:20:57;99684.19;;;-1.04;nan
72975;BME280;61166;54.228;37.632;2023-02-15T10:31:47;99698.28;;;-1.08;nan
72975;BME280;61166;54.228;37.632;2023-02-15T10:34:17;99713.28;;;-1.02;nan
72975;BME280;61166;54.228;37.632;2023-02-15T10:42:28;99690.94;;;-0.91;nan
72975;BME280;61166;54.228;37.632;2023-02-15T10:45:09;99705.63;;;-0.71;nan
72975;BME280;61166;54.228;37.632;2023-02-15T10:48:01;99704.63;;;-0.49;nan
72975;BME280;61166;54.228;37.632;2023-02-15T10:56:45;99701.84;;;-0.37;nan
72975;BME280;61166;54.228;37.632;2023-02-15T11:04:48;99702.31;;;-0.22;nan
72975;BME280;61166;54.228;37.632;2023-02-15T11:07:23;99714.06;;;-0.39;nan
72975;BME280;61166;54.228;37.632;2023-02-15T11:10:01;99711.88;;;-0.43;nan
72975;BME280;61166;54.228;37.632;2023-02-15T11:12:33;99717.38;;;-0.99;nan
72975;BME280;61166;54.228;37.632;2023-02-15T11:15:14;99722.63;;;-0.89;nan
72975;BME280;61166;54.228;37.632;2023-02-15T11:17:46;99715.38;;;-0.95;nan
72975;BME280;61166;54.228;37.632;2023-02-15T11:20:24;99720.09;;;-1.01;nan
72975;BME280;61166;54.228;37.632;2023-02-15T11:22:54;99724.78;;;-1.06;nan
72975;BME280;61166;54.228;37.632;2023-02-15T11:25:25;99712.50;;;-1.13;nan
72975;BME280;61166;54.228;37.632;2023-02-15T11:27:55;99727.97;;;-0.81;nan
72975;BME280;61166;54.228;37.632;2023-02-15T11:30:25;99720.22;;;-0.81;nan
72975;BME280;61166;54.228;37.632;2023-02-15T11:32:56;99725.59;;;-0.73;nan
72975;BME280;61166;54.228;37.632;2023-02-15T11:35:34;99731.06;;;-0.87;nan
72975;BME280;61166;54.228;37.632;2023-02-15T11:40:50;99746.03;;;-0.81;nan
72975;BME280;61166;54.228;37.632;2023-02-15T11:46:11;99747.09;;;-1.05;nan
72975;BME280;61166;54.228;37.632;2023-02-15T11:48:39;99736.41;;;-1.32;nan
72975;BME280;61166;54.228;37.632;2023-02-15T11:51:11;99753.56;;;-1.53;nan
72975;BME280;61166;54.228;37.632;2023-02-15T11:53:39;99749.66;;;-1.37;nan
72975;BME280;61166;54.228;37.632;2023-02-15T11:56:13;99766.47;;;-1.42;nan
72975;BME280;61166;54.228;37.632;2023-02-15T11:58:44;99765.06;;;-1.46;nan
72975;BME280;61166;54.228;37.632;2023-02-15T12:03:51;99760.59;;;-1.44;nan
72975;BME280;61166;54.228;37.632;2023-02-15T12:06:23;99766.84;;;-1.58;nan
72975;BME280;61166;54.228;37.632;2023-02-15T12:12:31;99781.97;;;-1.64;nan
72975;BME280;61166;54.228;37.632;2023-02-15T12:15:00;99791.31;;;-1.52;nan
72975;BME280;61166;54.228;37.632;2023-02-15T12:17:32;99777.97;;;-1.57;nan
72975;BME280;61166;54.228;37.632;2023-02-15T12:20:02;99776.13;;;-1.78;nan
72975;BME280;61166;54.228;37.632;2023-02-15T12:22:36;99790.88;;;-1.69;nan
72975;BME280;61166;54.228;37.632;2023-02-15T12:25:26;99784.81;;;-1.79;nan
72975;BME280;61166;54.228;37.632;2023-02-15T12:27:55;99781.75;;;-1.84;nan
72975;BME280;61166;54.228;37.632;2023-02-15T12:30:30;99794.38;;;-1.70;nan
72975;BME280;61166;54.228;37.632;2023-02-15T12:33:15;99785.59;;;-1.56;nan
72975;BME280;61166;54.228;37.632;2023-02-15T12:35:43;99791.56;;;-1.67;nan
72975;BME280;61166;54.228;37.632;2023-02-15T12:40:37;99807.28;;;-1.70;nan
72975;BME280;61166;54.228;37.632;2023-02-15T12:43:04;99801.41;;;-1.38;nan
72975;BME280;61166;54.228;37.632;2023-02-15T12:45:36;99800.38;;;-1.69;nan
72975;BME280;61166;54.228;37.632;2023-02-15T12:50:37;99809.03;;;-1.59;nan
72975;BME280;61166;54.228;37.632;2023-02-15T12:58:26;99799.31;;;-1.67;nan
72975;BME280;61166;54.228;37.632;2023-02-15T13:01:12;99806.03;;;-1.75;nan
72975;BME280;61166;54.228;37.632;2023-02-15T13:03:58;99824.41;;;-1.80;nan
72975;BME280;61166;54.228;37.632;2023-02-15T13:06:26;99808.94;;;-1.91;nan
72975;BME280;61166;54.228;37.632;2023-02-15T13:09:05;99800.97;;;-1.99;nan
72975;BME280;61166;54.228;37.632;2023-02-15T13:11:33;99818.06;;;-2.09;nan
72975;BME280;61166;54.228;37.632;2023-02-15T13:14:03;99805.41;;;-2.12;nan
72975;BME280;61166;54.228;37.632;2023-02-15T13:16:40;99825.06;;;-2.34;nan
72975;BME280;61166;54.228;37.632;2023-02-15T13:19:14;99814.50;;;-2.42;nan
72975;BME280;61166;54.228;37.632;2023-02-15T13:26:41;99840.50;;;-2.69;nan
72975;BME280;61166;54.228;37.632;2023-02-15T13:29:21;99835.97;;;-2.65;nan
72975;BME280;61166;54.228;37.632;2023-02-15T13:31:50;99824.91;;;-2.78;nan
72975;BME280;61166;54.228;37.632;2023-02-15T13:50:35;99866.91;;;-2.54;nan
72975;BME280;61166;54.228;37.632;2023-02-15T13:55:40;99862.53;;;-2.64;nan
72975;BME280;61166;54.228;37.632;2023-02-15T13:58:35;99879.06;;;-2.56;nan
72975;BME280;61166;54.228;37.632;2023-02-15T14:01:34;99885.75;;;-2.53;nan
72975;BME280;61166;54.228;37.632;2023-02-15T14:15:29;99896.59;;;-2.61;nan
72975;BME280;61166;54.228;37.632;2023-02-15T14:18:23;99904.28;;;-2.72;nan
72975;BME280;61166;54.228;37.632;2023-02-15T14:21:15;99898.84;;;-2.80;nan
72975;BME280;61166;54.228;37.632;2023-02-15T14:31:47;99912.63;;;-2.81;nan
72975;BME280;61166;54.228;37.632;2023-02-15T14:36:45;99904.81;;;-3.04;nan
72975;BME280;61166;54.228;37.632;2023-02-15T14:41:53;99916.25;;;-3.08;nan
72975;BME280;61166;54.228;37.632;2023-02-15T14:45:01;99924.56;;;-3.04;nan
72975;BME280;61166;54.228;37.632;2023-02-15T14:47:37;99924.06;;;-3.09;nan
72975;BME280;61166;54.228;37.632;2023-02-15T14:50:38;99930.47;;;-3.15;nan
72975;BME280;61166;54.228;37.632;2023-02-15T14:58:33;99944.88;;;-3.25;nan
72975;BME280;61166;54.228;37.632;2023-02-15T15:01:07;99946.31;;;-3.21;nan
72975;BME280;61166;54.228;37.632;2023-02-15T15:03:36;99940.34;;;-3.21;nan
72975;BME280;61166;54.228;37.632;2023-02-15T15:06:24;99941.78;;;-3.17;nan
72975;BME280;61166;54.228;37.632;2023-02-15T15:08:55;99949.00;;;-3.22;nan
72975;BME280;61166;54.228;37.632;2023-02-15T15:14:10;99956.41;;;-3.18;nan
72975;BME280;61166;54.228;37.632;2023-02-15T15:19:08;99950.13;;;-3.26;nan
72975;BME280;61166;54.228;37.632;2023-02-15T15:21:55;99963.41;;;-3.20;nan
72975;BME280;61166;54.228;37.632;2023-02-15T15:38:17;99978.94;;;-3.34;nan
72975;BME280;61166;54.228;37.632;2023-02-15T15:46:41;99989.53;;;-3.26;nan
72975;BME280;61166;54.228;37.632;2023-02-15T15:49:16;99989.22;;;-3.34;nan
72975;BME280;61166;54.228;37.632;2023-02-15T15:51:44;99995.28;;;-3.35;nan
72975;BME280;61166;54.228;37.632;2023-02-15T15:54:18;100003.53;;;-3.30;nan
72975;BME280;61166;54.228;37.632;2023-02-15T15:56:50;100005.38;;;-3.32;nan
72975;BME280;61166;54.228;37.632;2023-02-15T15:59:24;99999.19;;;-3.29;nan
72975;BME280;61166;54.228;37.632;2023-02-15T16:01:52;99996.94;;;-3.34;nan
72975;BME280;61166;54.228;37.632;2023-02-15T16:04:28;100006.19;;;-3.32;nan
72975;BME280;61166;54.228;37.632;2023-02-15T16:06:56;100007.84;;;-3.30;nan
72975;BME280;61166;54.228;37.632;2023-02-15T16:09:26;99996.53;;;-3.28;nan
72975;BME280;61166;54.228;37.632;2023-02-15T16:11:55;100015.88;;;-3.35;nan
72975;BME280;61166;54.228;37.632;2023-02-15T16:14:31;100013.81;;;-3.30;nan
72975;BME280;61166;54.228;37.632;2023-02-15T16:17:01;100012.16;;;-3.31;nan
72975;BME280;61166;54.228;37.632;2023-02-15T16:19:32;100014.63;;;-3.29;nan
72975;BME280;61166;54.228;37.632;2023-02-15T16:22:01;100015.34;;;-3.27;nan
72975;BME280;61166;54.228;37.632;2023-02-15T16:30:24;100021.44;;;-3.28;nan
72975;BME280;61166;54.228;37.632;2023-02-15T16:32:57;100022.84;;;-3.37;nan
72975;BME280;61166;54.228;37.632;2023-02-15T16:35:29;100021.94;;;-3.36;nan
72975;BME280;61166;54.228;37.632;2023-02-15T16:37:56;100019.78;;;-3.29;nan
72975;BME280;61166;54.228;37.632;2023-02-15T16:43:13;100026.78;;;-3.32;nan